createdAt,value
2023-03-07T00:00:22.962Z,80.93
2023-03-07T00:02:26.169Z,81.24
2023-03-07T00:04:29.297Z,81.05
2023-03-07T00:06:32.838Z,80.30
2023-03-07T00:08:36.294Z,81.08
2023-03-07T00:10:39.459Z,80.87
2023-03-07T00:12:42.592Z,80.98
2023-03-07T00:14:46.985Z,81.58
2023-03-07T00:16:51.312Z,81.51
2023-03-07T00:18:54.426Z,80.94
2023-03-07T00:21:00.508Z,80.05
2023-03-07T00:23:04.844Z,80.47
2023-03-07T00:25:08.890Z,80.88
2023-03-07T00:27:11.928Z,80.21
2023-03-07T00:29:15.136Z,79.97
2023-03-07T00:31:20.273Z,80.31
2023-03-07T00:33:23.333Z,80.32
2023-03-07T00:35:26.435Z,80.49
2023-03-07T00:37:30.787Z,80.96
2023-03-07T00:41:36.718Z,79.98
2023-03-07T00:43:39.968Z,80.80
2023-03-07T00:45:43.090Z,79.32
2023-03-07T00:47:50.329Z,79.14
2023-03-07T00:49:53.521Z,80.00
2023-03-07T00:51:57.000Z,80.08
2023-03-07T00:54:00.613Z,79.01
2023-03-07T00:56:06.612Z,79.63
2023-03-07T00:58:09.731Z,78.75
2023-03-07T01:00:13.838Z,79.00
2023-03-07T01:02:16.964Z,79.63
2023-03-07T01:04:21.564Z,79.16
2023-03-07T01:06:26.186Z,78.80
2023-03-07T01:08:30.881Z,79.68
2023-03-07T01:10:34.311Z,79.28
2023-03-07T01:12:37.491Z,79.24
2023-03-07T01:14:40.612Z,79.52
2023-03-07T01:16:43.771Z,78.93
2023-03-07T01:18:50.340Z,77.96
2023-03-07T01:20:55.466Z,78.53
2023-03-07T01:22:58.529Z,78.78
2023-03-07T01:25:02.121Z,78.95
2023-03-07T01:27:05.741Z,78.43
2023-03-07T01:29:09.753Z,79.02
2023-03-07T01:31:13.670Z,78.56
2023-03-07T01:33:17.463Z,77.90
2023-03-07T01:35:20.795Z,78.69
2023-03-07T01:37:25.338Z,78.82
2023-03-07T01:39:30.048Z,79.21
2023-03-07T01:41:38.730Z,78.35
2023-03-07T01:43:44.230Z,77.64
2023-03-07T01:46:30.339Z,78.75
2023-03-07T01:48:33.827Z,78.96
2023-03-07T01:50:37.094Z,78.44
2023-03-07T01:52:43.328Z,78.59
2023-03-07T01:54:50.458Z,79.22
2023-03-07T01:56:56.473Z,78.65
2023-03-07T01:58:59.694Z,78.37
2023-03-07T02:01:02.852Z,79.59
2023-03-07T02:03:11.603Z,79.24
2023-03-07T02:05:21.622Z,79.09
2023-03-07T02:07:26.726Z,79.08
2023-03-07T02:09:33.700Z,79.68
2023-03-07T02:11:36.902Z,79.00
2023-03-07T02:13:40.385Z,79.59
2023-03-07T02:15:44.136Z,78.63
2023-03-07T02:17:47.782Z,77.91
2023-03-07T02:19:59.846Z,78.75
2023-03-07T02:22:10.313Z,78.52
2023-03-07T02:24:20.067Z,78.02
2023-03-07T02:26:31.361Z,77.92
2023-03-07T02:28:36.171Z,77.94
2023-03-07T02:30:39.872Z,79.19
2023-03-07T02:32:42.974Z,78.66
2023-03-07T02:34:46.141Z,78.81
2023-03-07T02:36:56.061Z,77.92
2023-03-07T02:38:59.220Z,78.36
2023-03-07T02:41:03.734Z,78.30
2023-03-07T02:43:09.661Z,77.90
2023-03-07T02:45:19.050Z,77.65
2023-03-07T02:47:22.240Z,78.25
2023-03-07T02:49:25.547Z,76.72
2023-03-07T02:51:28.549Z,79.04
2023-03-07T02:53:32.247Z,79.44
2023-03-07T02:55:35.362Z,79.71
2023-03-07T02:57:40.863Z,80.14
2023-03-07T02:59:44.100Z,80.17
2023-03-07T03:01:48.605Z,80.07
2023-03-07T03:03:52.099Z,79.87
2023-03-07T03:05:55.348Z,80.16
2023-03-07T03:07:58.448Z,81.25
2023-03-07T03:10:01.461Z,80.71
2023-03-07T03:12:06.715Z,80.90
2023-03-07T03:14:10.835Z,81.61
2023-03-07T03:16:14.054Z,82.08
2023-03-07T03:18:19.024Z,81.97
2023-03-07T03:20:22.571Z,82.48
2023-03-07T03:22:25.845Z,82.35
2023-03-07T03:24:28.944Z,82.05
2023-03-07T03:26:32.423Z,81.83
2023-03-07T03:28:36.521Z,81.90
2023-03-07T03:30:40.403Z,82.63
2023-03-07T03:32:43.832Z,82.16
2023-03-07T03:34:51.063Z,82.07
2023-03-07T03:36:54.231Z,81.80
2023-03-07T03:39:00.498Z,81.63
2023-03-07T03:41:07.576Z,80.17
2023-03-07T03:43:12.567Z,79.80
2023-03-07T03:45:15.854Z,80.74
2023-03-07T03:47:19.496Z,79.79
2023-03-07T03:49:22.708Z,80.32
2023-03-07T03:51:29.367Z,80.35
2023-03-07T03:53:33.420Z,79.89
2023-03-07T03:55:36.406Z,79.41
2023-03-07T03:57:40.198Z,79.44
2023-03-07T03:59:43.334Z,79.08
2023-03-07T04:01:46.527Z,78.20
2023-03-07T04:03:51.397Z,78.90
2023-03-07T04:05:54.640Z,78.33
2023-03-07T04:07:59.161Z,77.85
2023-03-07T04:10:02.626Z,77.06
2023-03-07T04:12:06.850Z,77.12
2023-03-07T04:14:10.447Z,77.46
2023-03-07T04:16:13.965Z,77.27
2023-03-07T04:18:17.660Z,77.31
2023-03-07T04:20:21.656Z,76.53
2023-03-07T04:22:24.862Z,76.49
2023-03-07T04:24:29.353Z,76.37
2023-03-07T04:26:32.472Z,75.74
2023-03-07T04:28:46.665Z,76.49
2023-03-07T04:30:54.169Z,76.25
2023-03-07T04:32:57.500Z,76.61
2023-03-07T04:35:03.379Z,76.01
2023-03-07T04:37:06.527Z,75.27
2023-03-07T04:39:09.763Z,75.24
2023-03-07T04:41:16.399Z,75.34
2023-03-07T04:43:21.666Z,75.71
2023-03-07T04:45:25.014Z,73.94
2023-03-07T04:47:28.234Z,74.97
2023-03-07T04:49:31.470Z,74.74
2023-03-07T04:51:34.736Z,74.70
2023-03-07T04:53:37.904Z,75.16
2023-03-07T04:55:41.093Z,75.13
2023-03-07T04:57:46.686Z,74.38
2023-03-07T04:59:50.593Z,74.72
2023-03-07T05:01:53.714Z,74.91
2023-03-07T05:03:56.976Z,74.16
2023-03-07T05:06:03.205Z,74.65
2023-03-07T05:08:07.067Z,75.13
2023-03-07T05:10:11.843Z,75.23
2023-03-07T05:12:14.948Z,75.46
2023-03-07T05:14:19.392Z,75.36
2023-03-07T05:16:22.445Z,75.42
2023-03-07T05:18:26.556Z,75.50
2023-03-07T05:20:31.063Z,74.92
2023-03-07T05:22:36.788Z,74.79
2023-03-07T05:24:40.082Z,75.23
2023-03-07T05:26:43.486Z,75.20
2023-03-07T05:28:47.235Z,75.24
2023-03-07T05:30:51.738Z,74.44
2023-03-07T05:32:54.945Z,74.80
2023-03-07T05:34:58.135Z,75.13
2023-03-07T05:37:01.473Z,75.99
2023-03-07T05:39:08.180Z,76.17
2023-03-07T05:41:12.884Z,76.92
2023-03-07T05:43:19.863Z,76.75
2023-03-07T05:45:23.336Z,77.10
2023-03-07T05:47:28.110Z,77.20
2023-03-07T05:49:31.471Z,77.61
2023-03-07T05:51:36.584Z,76.93
2023-03-07T05:53:39.695Z,76.82
2023-03-07T05:55:42.888Z,76.42
2023-03-07T05:57:46.023Z,76.84
2023-03-07T05:59:49.184Z,76.93
2023-03-07T06:01:52.503Z,76.68
2023-03-07T06:03:57.213Z,76.19
2023-03-07T06:06:01.752Z,76.11
2023-03-07T06:08:05.173Z,76.25
2023-03-07T06:10:09.686Z,75.42
2023-03-07T06:12:13.067Z,76.26
2023-03-07T06:14:16.263Z,75.29
2023-03-07T06:16:19.402Z,74.61
2023-03-07T06:18:23.351Z,75.23
2023-03-07T06:20:28.066Z,75.63
2023-03-07T06:22:34.642Z,74.18
2023-03-07T06:24:47.154Z,74.65
2023-03-07T06:26:50.767Z,74.20
2023-03-07T06:28:56.819Z,75.15
2023-03-07T06:31:02.199Z,75.20
2023-03-07T06:33:05.841Z,74.76
2023-03-07T06:35:10.274Z,74.57
2023-03-07T06:37:15.276Z,75.06
2023-03-07T06:39:22.072Z,74.39
2023-03-07T06:41:28.766Z,73.90
2023-03-07T06:43:34.763Z,75.06
2023-03-07T06:45:38.866Z,74.78
2023-03-07T06:47:42.232Z,75.44
2023-03-07T06:49:46.998Z,75.19
2023-03-07T06:51:50.214Z,74.53
2023-03-07T06:53:54.930Z,74.75
2023-03-07T06:55:58.264Z,73.90
2023-03-07T06:58:01.380Z,74.76
2023-03-07T07:00:06.776Z,73.70
2023-03-07T07:02:11.952Z,73.82
2023-03-07T07:04:15.356Z,73.46
2023-03-07T07:06:19.282Z,73.61
2023-03-07T07:08:23.825Z,73.36
2023-03-07T07:10:28.474Z,73.92
2023-03-07T07:12:31.759Z,73.52
2023-03-07T07:14:35.566Z,73.16
2023-03-07T07:16:38.967Z,73.56
2023-03-07T07:18:42.815Z,73.33
2023-03-07T07:20:45.975Z,73.65
2023-03-07T07:22:49.039Z,73.58
2023-03-07T07:24:52.140Z,73.65
2023-03-07T07:26:56.864Z,72.81
2023-03-07T07:28:59.974Z,73.81
2023-03-07T07:31:04.105Z,73.55
2023-03-07T07:33:08.180Z,73.72
2023-03-07T07:35:11.510Z,72.55
2023-03-07T07:37:14.638Z,73.80
2023-03-07T07:39:18.139Z,74.04
2023-03-07T07:41:23.112Z,74.19
2023-03-07T07:43:30.384Z,73.18
2023-03-07T07:45:43.366Z,73.94
2023-03-07T07:47:51.211Z,74.43
2023-03-07T07:49:55.059Z,74.17
2023-03-07T07:51:58.410Z,73.99
2023-03-07T07:54:01.677Z,75.00
2023-03-07T07:56:05.095Z,73.84
2023-03-07T07:58:08.280Z,73.99
2023-03-07T08:00:19.396Z,74.13
2023-03-07T08:02:22.534Z,74.21
2023-03-07T08:04:25.889Z,74.75
2023-03-07T08:06:29.671Z,74.91
2023-03-07T08:08:32.971Z,75.16
2023-03-07T08:10:36.463Z,75.35
2023-03-07T08:12:39.628Z,74.10
2023-03-07T08:14:42.782Z,74.39
2023-03-07T08:16:47.476Z,74.39
2023-03-07T08:18:51.745Z,74.38
2023-03-07T08:20:55.014Z,74.88
2023-03-07T08:22:58.292Z,74.61
2023-03-07T08:25:01.478Z,73.68
2023-03-07T08:27:05.107Z,73.72
2023-03-07T08:29:08.302Z,73.31
2023-03-07T08:31:13.344Z,74.03
2023-03-07T08:33:17.827Z,73.64
2023-03-07T08:35:21.326Z,73.52
2023-03-07T08:37:24.442Z,72.70
2023-03-07T08:39:27.753Z,73.49
2023-03-07T08:41:30.978Z,72.47
2023-03-07T08:43:36.244Z,73.59
2023-03-07T08:45:41.370Z,72.26
2023-03-07T08:47:44.724Z,72.62
2023-03-07T08:49:49.192Z,72.00
2023-03-07T08:51:52.206Z,71.87
2023-03-07T08:53:55.442Z,71.75
2023-03-07T08:55:58.544Z,71.42
2023-03-07T08:58:01.840Z,72.00
2023-03-07T09:00:08.131Z,72.05
2023-03-07T09:02:11.750Z,69.89
2023-03-07T09:04:15.293Z,70.85
2023-03-07T09:06:21.097Z,70.47
2023-03-07T09:08:24.084Z,70.38
2023-03-07T09:10:27.543Z,68.60
2023-03-07T09:12:30.702Z,69.13
2023-03-07T09:14:33.820Z,68.60
2023-03-07T09:16:37.128Z,67.61
2023-03-07T09:18:40.345Z,68.46
2023-03-07T09:20:43.463Z,67.17
2023-03-07T09:22:48.022Z,67.40
2023-03-07T09:24:51.207Z,66.86
2023-03-07T09:26:54.364Z,66.76
2023-03-07T09:28:57.429Z,67.84
2023-03-07T09:31:00.554Z,68.56
2023-03-07T09:33:04.155Z,67.32
2023-03-07T09:35:07.884Z,68.51
2023-03-07T09:37:11.529Z,67.24
2023-03-07T09:39:16.584Z,67.38
2023-03-07T09:41:42.888Z,68.09
2023-03-07T09:43:50.142Z,66.88
2023-03-07T09:46:25.685Z,67.72
2023-03-07T09:49:00.122Z,68.07
2023-03-07T09:51:11.920Z,67.72
2023-03-07T09:53:21.437Z,66.68
2023-03-07T09:55:26.499Z,66.91
2023-03-07T09:57:32.733Z,64.44
2023-03-07T09:59:37.651Z,63.05
2023-03-07T10:01:41.662Z,62.79
2023-03-07T10:03:52.635Z,63.20
2023-03-07T10:05:58.838Z,63.31
2023-03-07T10:08:02.709Z,62.17
2023-03-07T10:10:08.630Z,60.56
2023-03-07T10:12:37.214Z,60.41
2023-03-07T10:14:52.056Z,60.29
2023-03-07T10:17:01.388Z,61.23
2023-03-07T10:19:11.546Z,60.51
2023-03-07T10:21:19.958Z,61.39
2023-03-07T10:23:41.970Z,60.44
2023-03-07T10:25:49.302Z,60.02
2023-03-07T10:28:00.910Z,61.64
2023-03-07T10:30:15.638Z,60.34
2023-03-07T10:32:25.267Z,62.05
2023-03-07T10:34:32.393Z,61.30
2023-03-07T10:36:39.754Z,60.10
2023-03-07T10:38:46.307Z,59.96
2023-03-07T10:40:51.942Z,58.97
2023-03-07T10:42:56.745Z,58.22
2023-03-07T10:45:00.058Z,60.74
2023-03-07T10:47:03.443Z,58.89
2023-03-07T10:49:11.014Z,58.20
2023-03-07T10:51:29.279Z,58.90
2023-03-07T10:53:35.266Z,59.87
2023-03-07T10:55:42.959Z,60.32
2023-03-07T10:57:46.119Z,60.30
2023-03-07T10:59:51.954Z,61.38
2023-03-07T11:01:56.516Z,61.34
2023-03-07T11:04:01.740Z,60.67
2023-03-07T11:06:05.568Z,60.42
2023-03-07T11:08:22.717Z,61.14
2023-03-07T11:10:28.925Z,61.97
2023-03-07T11:12:32.116Z,61.52
2023-03-07T11:14:47.568Z,61.64
2023-03-07T11:16:54.321Z,61.47
2023-03-07T11:18:58.312Z,61.80
2023-03-07T11:21:01.455Z,61.38
2023-03-07T11:23:15.954Z,61.78
2023-03-07T11:25:22.973Z,62.93
2023-03-07T11:27:31.757Z,63.36
2023-03-07T11:29:34.930Z,63.47
2023-03-07T11:31:44.144Z,64.10
2023-03-07T11:34:00.164Z,64.49
2023-03-07T11:36:05.494Z,65.05
2023-03-07T11:38:13.648Z,64.72
2023-03-07T11:40:23.364Z,65.68
2023-03-07T11:42:31.371Z,65.54
2023-03-07T11:44:41.359Z,65.22
2023-03-07T11:46:58.971Z,65.98
2023-03-07T11:49:15.260Z,65.48
2023-03-07T11:51:42.629Z,65.32
2023-03-07T11:54:01.156Z,65.19
2023-03-07T11:56:19.346Z,64.98
2023-03-07T11:58:34.812Z,65.14
2023-03-07T12:00:48.443Z,64.33
2023-03-07T12:03:16.813Z,63.27
2023-03-07T12:05:34.059Z,63.50
2023-03-07T12:07:52.758Z,63.77
2023-03-07T12:10:02.196Z,63.20
2023-03-07T12:12:29.930Z,62.77
2023-03-07T12:14:40.971Z,61.01
2023-03-07T12:16:54.118Z,61.81
2023-03-07T12:19:09.791Z,62.67
2023-03-07T12:21:24.396Z,60.61
2023-03-07T12:23:33.956Z,60.40
2023-03-07T12:25:38.568Z,60.34
2023-03-07T12:27:45.250Z,61.10
2023-03-07T12:29:53.171Z,62.10
2023-03-07T12:32:00.494Z,62.17
2023-03-07T12:34:06.340Z,61.65
2023-03-07T12:36:13.079Z,59.94
2023-03-07T12:38:26.981Z,61.34
2023-03-07T12:40:35.590Z,61.06
2023-03-07T12:42:47.165Z,61.79
2023-03-07T12:44:51.548Z,61.16
2023-03-07T12:47:02.809Z,61.17
2023-03-07T12:49:16.012Z,62.59
2023-03-07T12:51:21.745Z,63.14
2023-03-07T12:53:33.874Z,62.91
2023-03-07T12:55:40.604Z,61.53
2023-03-07T12:57:45.890Z,60.93
2023-03-07T12:59:51.699Z,61.79
2023-03-07T13:02:03.353Z,60.36
2023-03-07T13:04:10.186Z,59.24
2023-03-07T13:06:17.960Z,59.31
2023-03-07T13:08:23.578Z,60.24
2023-03-07T13:10:28.435Z,59.24
2023-03-07T13:12:33.870Z,60.37
2023-03-07T13:14:40.803Z,60.63
2023-03-07T13:16:45.678Z,60.24
2023-03-07T13:18:48.938Z,59.03
2023-03-07T13:21:27.696Z,59.58
2023-03-07T13:23:31.689Z,58.68
2023-03-07T13:26:03.690Z,58.43
2023-03-07T13:28:33.555Z,60.01
2023-03-07T13:30:36.767Z,59.12
2023-03-07T13:32:59.818Z,59.07
2023-03-07T13:35:03.167Z,59.34
2023-03-07T13:37:48.905Z,60.26
2023-03-07T13:40:03.293Z,59.72
2023-03-07T13:42:45.398Z,58.69
2023-03-07T13:44:48.641Z,59.38
2023-03-07T13:46:55.708Z,58.90
2023-03-07T13:49:03.923Z,58.65
2023-03-07T13:51:10.429Z,60.05
2023-03-07T13:53:15.720Z,60.91
2023-03-07T13:55:29.230Z,60.94
2023-03-07T13:57:41.726Z,59.65
2023-03-07T13:59:49.586Z,60.58
2023-03-07T14:01:58.256Z,61.30
2023-03-07T14:04:07.324Z,61.05
2023-03-07T14:06:14.066Z,60.56
2023-03-07T14:08:17.306Z,61.05
2023-03-07T14:10:25.117Z,60.53
2023-03-07T14:12:37.141Z,60.57
2023-03-07T14:14:53.242Z,61.75
2023-03-07T14:17:15.007Z,61.19
2023-03-07T14:19:31.771Z,62.05
2023-03-07T14:21:45.856Z,60.61
2023-03-07T14:24:07.224Z,61.94
2023-03-07T14:26:14.548Z,62.41
2023-03-07T14:28:27.799Z,61.12
2023-03-07T14:30:34.333Z,60.61
2023-03-07T14:32:37.806Z,61.78
2023-03-07T14:34:50.674Z,61.56
2023-03-07T14:36:55.817Z,62.15
2023-03-07T14:39:02.267Z,62.26
2023-03-07T14:41:31.664Z,60.63
2023-03-07T14:43:43.240Z,61.74
2023-03-07T14:45:52.123Z,62.52
2023-03-07T14:48:14.508Z,62.23
2023-03-07T14:50:22.081Z,61.80
2023-03-07T14:52:31.226Z,61.52
2023-03-07T14:54:35.587Z,61.39
2023-03-07T14:56:39.193Z,61.12
2023-03-07T14:58:51.499Z,59.91
2023-03-07T15:01:03.837Z,59.46
2023-03-07T15:03:12.881Z,59.33
2023-03-07T15:05:17.594Z,60.78
2023-03-07T15:07:23.319Z,60.15
2023-03-07T15:09:29.940Z,59.92
2023-03-07T15:11:36.223Z,61.13
2023-03-07T15:13:45.800Z,61.22
2023-03-07T15:15:50.878Z,61.33
2023-03-07T15:17:56.640Z,62.50
2023-03-07T15:20:01.518Z,61.07
2023-03-07T15:22:12.914Z,63.71
2023-03-07T15:24:19.041Z,62.56
2023-03-07T15:26:24.070Z,61.62
2023-03-07T15:28:30.356Z,61.30
2023-03-07T15:30:35.166Z,61.74
2023-03-07T15:32:40.043Z,61.78
2023-03-07T15:34:45.069Z,61.09
2023-03-07T15:36:48.382Z,59.77
2023-03-07T15:38:53.128Z,60.63
2023-03-07T15:40:56.397Z,60.63
2023-03-07T15:43:02.233Z,59.64
2023-03-07T15:45:08.363Z,59.83
2023-03-07T15:47:17.081Z,60.71
2023-03-07T15:49:23.326Z,59.12
2023-03-07T15:51:35.732Z,60.58
2023-03-07T15:53:40.352Z,61.09
2023-03-07T15:55:57.645Z,60.90
2023-03-07T15:58:02.351Z,59.82
2023-03-07T16:00:08.322Z,60.04
2023-03-07T16:02:41.439Z,61.36
2023-03-07T16:04:44.713Z,60.75
2023-03-07T16:06:49.331Z,61.67
2023-03-07T16:08:52.576Z,60.23
2023-03-07T16:10:59.113Z,61.01
2023-03-07T16:13:03.169Z,60.52
2023-03-07T16:15:07.316Z,61.23
2023-03-07T16:17:16.339Z,60.85
2023-03-07T16:19:19.397Z,62.08
2023-03-07T16:21:22.539Z,61.83
2023-03-07T16:23:28.774Z,61.98
2023-03-07T16:25:32.956Z,62.53
2023-03-07T16:27:36.078Z,62.61
2023-03-07T16:29:39.218Z,61.83
2023-03-07T16:31:42.444Z,61.33
2023-03-07T16:33:46.431Z,61.34
2023-03-07T16:35:49.560Z,61.64
2023-03-07T16:37:53.065Z,61.70
2023-03-07T16:39:57.488Z,63.17
2023-03-07T16:42:01.100Z,62.83
2023-03-07T16:44:04.744Z,62.63
2023-03-07T16:46:12.602Z,62.95
2023-03-07T16:48:16.894Z,62.28
2023-03-07T16:50:21.539Z,63.03
2023-03-07T16:52:25.812Z,62.31
2023-03-07T16:54:29.098Z,61.91
2023-03-07T16:56:35.718Z,63.29
2023-03-07T16:58:38.955Z,62.98
2023-03-07T17:00:42.117Z,62.73
2023-03-07T17:02:45.671Z,62.92
2023-03-07T17:04:48.993Z,63.13
2023-03-07T17:07:03.813Z,63.86
2023-03-07T17:09:09.316Z,63.93
2023-03-07T17:11:18.910Z,63.49
2023-03-07T17:13:23.411Z,63.00
2023-03-07T17:15:30.685Z,63.58
2023-03-07T17:17:36.619Z,63.37
2023-03-07T17:19:39.715Z,64.48
2023-03-07T17:21:43.019Z,64.08
2023-03-07T17:23:46.846Z,64.77
2023-03-07T17:25:50.467Z,64.56
2023-03-07T17:27:56.534Z,63.53
2023-03-07T17:30:01.178Z,63.88
2023-03-07T17:32:04.815Z,62.79
2023-03-07T17:34:07.960Z,63.71
2023-03-07T17:36:12.256Z,64.07
2023-03-07T17:38:15.667Z,64.36
2023-03-07T17:40:18.872Z,64.82
2023-03-07T17:42:21.962Z,64.06
2023-03-07T17:44:25.272Z,63.27
2023-03-07T17:46:30.062Z,64.41
2023-03-07T17:48:33.180Z,63.06
2023-03-07T17:50:36.443Z,64.40
2023-03-07T17:52:40.083Z,64.83
2023-03-07T17:54:45.975Z,64.34
2023-03-07T17:56:49.253Z,63.63
2023-03-07T17:58:52.785Z,65.15
2023-03-07T18:00:55.930Z,64.13
2023-03-07T18:03:01.873Z,65.05
2023-03-07T18:05:05.272Z,64.03
2023-03-07T18:07:08.490Z,65.57
2023-03-07T18:09:13.462Z,64.88
2023-03-07T18:11:16.842Z,64.69
2023-03-07T18:13:21.810Z,65.14
2023-03-07T18:15:26.367Z,64.76
2023-03-07T18:17:38.464Z,65.87
2023-03-07T18:19:50.060Z,65.67
2023-03-07T18:21:53.267Z,66.37
2023-03-07T18:23:56.600Z,66.08
2023-03-07T18:25:59.870Z,66.73
2023-03-07T18:28:04.400Z,66.56
2023-03-07T18:30:09.310Z,66.27
2023-03-07T18:32:12.768Z,66.83
2023-03-07T18:34:16.726Z,67.38
2023-03-07T18:36:23.501Z,67.15
2023-03-07T18:38:27.288Z,66.56
2023-03-07T18:40:30.431Z,66.89
2023-03-07T18:42:34.193Z,66.34
2023-03-07T18:44:40.061Z,66.18
2023-03-07T18:46:43.993Z,66.63
2023-03-07T18:48:47.870Z,66.35
2023-03-07T18:50:57.255Z,66.39
2023-03-07T18:53:01.738Z,65.87
2023-03-07T18:55:05.393Z,66.16
2023-03-07T18:57:08.527Z,64.98
2023-03-07T18:59:11.798Z,66.33
2023-03-07T19:01:16.617Z,65.97
2023-03-07T19:03:19.938Z,65.92
2023-03-07T19:05:23.057Z,65.30
2023-03-07T19:07:27.934Z,64.53
2023-03-07T19:09:32.439Z,65.00
2023-03-07T19:11:36.526Z,65.28
2023-03-07T19:13:40.063Z,65.08
2023-03-07T19:15:45.005Z,64.78
2023-03-07T19:17:48.145Z,64.95
2023-03-07T19:19:53.941Z,65.28
2023-03-07T19:21:57.111Z,65.38
2023-03-07T19:24:01.624Z,65.14
2023-03-07T19:26:07.474Z,65.03
2023-03-07T19:28:12.286Z,64.82
2023-03-07T19:30:16.079Z,64.66
2023-03-07T19:32:19.304Z,64.89
2023-03-07T19:34:22.435Z,65.09
2023-03-07T19:36:27.464Z,65.28
2023-03-07T19:38:30.784Z,65.15
2023-03-07T19:40:33.891Z,65.19
2023-03-07T19:42:38.381Z,65.67
2023-03-07T19:44:41.668Z,65.42
2023-03-07T19:46:47.114Z,64.99
2023-03-07T19:48:50.579Z,65.49
2023-03-07T19:50:54.604Z,65.30
2023-03-07T19:52:59.112Z,65.49
2023-03-07T19:55:02.327Z,65.65
2023-03-07T19:57:06.403Z,65.79
2023-03-07T19:59:11.886Z,65.63
2023-03-07T20:01:16.779Z,66.09
2023-03-07T20:03:21.028Z,65.59
2023-03-07T20:05:24.537Z,65.57
2023-03-07T20:07:28.373Z,65.95
2023-03-07T20:09:31.659Z,66.18
2023-03-07T20:11:35.603Z,66.12
2023-03-07T20:13:39.310Z,66.14
2023-03-07T20:15:51.768Z,65.82
2023-03-07T20:17:54.952Z,66.01
2023-03-07T20:19:58.348Z,66.04
2023-03-07T20:22:01.921Z,66.67
2023-03-07T20:24:05.904Z,66.33
2023-03-07T20:26:10.840Z,66.58
2023-03-07T20:28:13.997Z,66.57
2023-03-07T20:30:17.686Z,66.06
2023-03-07T20:32:22.406Z,65.75
2023-03-07T20:34:28.857Z,66.49
2023-03-07T20:36:33.766Z,66.35
2023-03-07T20:38:38.528Z,66.21
2023-03-07T20:40:42.193Z,66.31
2023-03-07T20:42:46.535Z,66.50
2023-03-07T20:44:49.637Z,66.24
2023-03-07T20:46:52.760Z,66.38
2023-03-07T20:48:58.220Z,66.54
2023-03-07T20:51:06.235Z,65.90
2023-03-07T20:53:09.547Z,65.53
2023-03-07T20:55:12.854Z,65.25
2023-03-07T20:57:16.051Z,65.16
2023-03-07T20:59:20.453Z,65.25
2023-03-07T21:01:24.777Z,64.77
2023-03-07T21:03:30.745Z,65.15
2023-03-07T21:05:35.426Z,65.10
2023-03-07T21:07:38.600Z,65.29
2023-03-07T21:09:42.087Z,64.69
2023-03-07T21:11:47.064Z,64.83
2023-03-07T21:13:50.592Z,63.87
2023-03-07T21:15:54.993Z,64.34
2023-03-07T21:17:58.507Z,64.03
2023-03-07T21:20:02.006Z,63.74
2023-03-07T21:22:06.860Z,63.88
2023-03-07T21:24:12.399Z,64.09
2023-03-07T21:26:17.756Z,64.14
2023-03-07T21:28:21.152Z,64.48
2023-03-07T21:30:24.429Z,64.38
2023-03-07T21:32:27.553Z,64.40
2023-03-07T21:34:30.732Z,63.52
2023-03-07T21:36:34.593Z,63.84
2023-03-07T21:38:39.965Z,64.01
2023-03-07T21:40:43.254Z,63.76
2023-03-07T21:42:48.990Z,63.91
2023-03-07T21:44:52.249Z,63.97
2023-03-07T21:46:55.314Z,63.91
2023-03-07T21:48:59.778Z,64.03
2023-03-07T21:51:03.554Z,64.12
2023-03-07T21:53:06.792Z,63.39
2023-03-07T21:55:11.844Z,63.64
2023-03-07T21:57:15.379Z,63.94
2023-03-07T21:59:18.598Z,63.85
2023-03-07T22:01:27.610Z,63.85
2023-03-07T22:03:30.726Z,63.29
2023-03-07T22:05:33.812Z,64.05
2023-03-07T22:07:36.990Z,63.29
2023-03-07T22:09:40.279Z,63.05
2023-03-07T22:11:44.779Z,63.75
2023-03-07T22:13:48.016Z,62.93
2023-03-07T22:15:58.753Z,63.82
2023-03-07T22:18:01.812Z,63.99
2023-03-07T22:20:14.349Z,63.81
2023-03-07T22:22:17.562Z,63.83
2023-03-07T22:24:20.739Z,64.21
2023-03-07T22:26:24.014Z,63.76
2023-03-07T22:28:28.526Z,64.27
2023-03-07T22:30:34.940Z,64.31
2023-03-07T22:32:38.127Z,64.60
2023-03-07T22:34:41.362Z,64.61
2023-03-07T22:36:44.643Z,64.68
2023-03-07T22:38:48.012Z,65.00
2023-03-07T22:40:53.562Z,65.03
2023-03-07T22:42:56.882Z,64.81
2023-03-07T22:45:01.571Z,64.69
2023-03-07T22:47:05.062Z,64.87
2023-03-07T22:49:08.208Z,65.33
2023-03-07T22:51:18.180Z,65.58
2023-03-07T22:53:21.402Z,65.57
2023-03-07T22:55:24.484Z,65.65
2023-03-07T22:57:27.621Z,65.88
2023-03-07T22:59:30.843Z,65.86
2023-03-07T23:01:35.406Z,65.40
2023-03-07T23:03:38.840Z,65.54
2023-03-07T23:05:43.086Z,65.68
2023-03-07T23:07:48.632Z,65.41
2023-03-07T23:09:52.001Z,65.60
2023-03-07T23:11:55.078Z,65.96
2023-03-07T23:13:58.618Z,65.83
2023-03-07T23:16:05.387Z,65.66
2023-03-07T23:18:10.331Z,65.58
2023-03-07T23:20:14.862Z,65.44
2023-03-07T23:22:18.006Z,65.75
2023-03-07T23:24:21.038Z,65.41
2023-03-07T23:26:25.983Z,65.33
2023-03-07T23:28:29.618Z,65.65
2023-03-07T23:30:32.877Z,65.77
2023-03-07T23:32:36.388Z,65.22
2023-03-07T23:34:41.431Z,64.79
2023-03-07T23:36:44.651Z,65.17
2023-03-07T23:38:47.822Z,64.89
2023-03-07T23:40:51.020Z,65.54
2023-03-07T23:42:56.202Z,65.37
2023-03-07T23:44:59.544Z,65.45
2023-03-07T23:47:02.711Z,65.39
2023-03-07T23:49:06.182Z,65.58
2023-03-07T23:51:11.050Z,65.42
2023-03-07T23:53:14.209Z,66.14
2023-03-07T23:55:17.822Z,66.50
2023-03-07T23:57:20.951Z,66.12
2023-03-07T23:59:23.977Z,66.85
